sensor_id;sensor_type;location;lat;lon;timestamp;P1;durP1;ratioP1;P2;durP2;ratioP2
79644;SDS011;69117;47.148;18.954;2023-09-08T00:00:52;7.07;;;3.67;;
79644;SDS011;69117;47.148;18.954;2023-09-08T00:03:54;6.82;;;4.65;;
79644;SDS011;69117;47.148;18.954;2023-09-08T00:06:56;6.43;;;3.72;;
79644;SDS011;69117;47.148;18.954;2023-09-08T00:09:58;7.85;;;4.53;;
79644;SDS011;69117;47.148;18.954;2023-09-08T00:13:00;11.23;;;5.35;;
79644;SDS011;69117;47.148;18.954;2023-09-08T00:16:01;6.18;;;4.15;;
79644;SDS011;69117;47.148;18.954;2023-09-08T00:19:03;5.03;;;3.97;;
79644;SDS011;69117;47.148;18.954;2023-09-08T00:22:05;5.80;;;5.15;;
79644;SDS011;69117;47.148;18.954;2023-09-08T00:25:09;5.95;;;3.90;;
79644;SDS011;69117;47.148;18.954;2023-09-08T00:28:11;6.53;;;4.18;;
79644;SDS011;69117;47.148;18.954;2023-09-08T00:31:13;9.43;;;4.53;;
79644;SDS011;69117;47.148;18.954;2023-09-08T00:34:14;7.68;;;4.90;;
79644;SDS011;69117;47.148;18.954;2023-09-08T00:37:16;8.00;;;5.00;;
79644;SDS011;69117;47.148;18.954;2023-09-08T00:40:18;6.68;;;4.10;;
79644;SDS011;69117;47.148;18.954;2023-09-08T00:43:19;16.50;;;4.70;;
79644;SDS011;69117;47.148;18.954;2023-09-08T00:46:21;6.03;;;4.47;;
79644;SDS011;69117;47.148;18.954;2023-09-08T00:49:23;7.47;;;4.30;;
79644;SDS011;69117;47.148;18.954;2023-09-08T00:52:25;7.82;;;5.05;;
79644;SDS011;69117;47.148;18.954;2023-09-08T00:55:32;10.77;;;5.00;;
79644;SDS011;69117;47.148;18.954;2023-09-08T00:58:34;6.93;;;4.57;;
79644;SDS011;69117;47.148;18.954;2023-09-08T01:01:36;9.00;;;4.07;;
79644;SDS011;69117;47.148;18.954;2023-09-08T01:04:38;9.75;;;4.57;;
79644;SDS011;69117;47.148;18.954;2023-09-08T01:07:42;9.27;;;5.00;;
79644;SDS011;69117;47.148;18.954;2023-09-08T01:10:45;8.13;;;4.05;;
79644;SDS011;69117;47.148;18.954;2023-09-08T01:13:47;7.97;;;4.97;;
79644;SDS011;69117;47.148;18.954;2023-09-08T01:16:49;7.13;;;4.60;;
79644;SDS011;69117;47.148;18.954;2023-09-08T01:19:51;7.57;;;4.47;;
79644;SDS011;69117;47.148;18.954;2023-09-08T01:26:40;8.85;;;5.32;;
79644;SDS011;69117;47.148;18.954;2023-09-08T01:29:44;5.65;;;4.13;;
79644;SDS011;69117;47.148;18.954;2023-09-08T01:32:47;8.65;;;4.57;;
79644;SDS011;69117;47.148;18.954;2023-09-08T01:35:50;6.47;;;4.82;;
79644;SDS011;69117;47.148;18.954;2023-09-08T01:38:52;6.88;;;4.28;;
79644;SDS011;69117;47.148;18.954;2023-09-08T01:41:54;8.95;;;4.47;;
79644;SDS011;69117;47.148;18.954;2023-09-08T01:44:56;7.78;;;4.47;;
79644;SDS011;69117;47.148;18.954;2023-09-08T01:47:57;6.65;;;4.22;;
79644;SDS011;69117;47.148;18.954;2023-09-08T01:50:59;7.68;;;5.00;;
79644;SDS011;69117;47.148;18.954;2023-09-08T01:54:01;6.15;;;4.63;;
79644;SDS011;69117;47.148;18.954;2023-09-08T01:57:03;7.35;;;4.97;;
79644;SDS011;69117;47.148;18.954;2023-09-08T02:00:05;6.22;;;4.05;;
79644;SDS011;69117;47.148;18.954;2023-09-08T02:03:07;7.40;;;4.75;;
79644;SDS011;69117;47.148;18.954;2023-09-08T02:06:08;7.72;;;4.60;;
79644;SDS011;69117;47.148;18.954;2023-09-08T02:09:11;6.85;;;4.55;;
79644;SDS011;69117;47.148;18.954;2023-09-08T02:12:15;7.43;;;4.75;;
79644;SDS011;69117;47.148;18.954;2023-09-08T02:15:16;7.57;;;4.45;;
79644;SDS011;69117;47.148;18.954;2023-09-08T02:18:19;7.10;;;4.40;;
79644;SDS011;69117;47.148;18.954;2023-09-08T02:21:21;7.72;;;4.50;;
79644;SDS011;69117;47.148;18.954;2023-09-08T02:24:22;7.80;;;4.40;;
79644;SDS011;69117;47.148;18.954;2023-09-08T02:27:24;8.32;;;4.70;;
79644;SDS011;69117;47.148;18.954;2023-09-08T02:30:26;8.55;;;5.30;;
79644;SDS011;69117;47.148;18.954;2023-09-08T02:33:28;7.82;;;5.00;;
79644;SDS011;69117;47.148;18.954;2023-09-08T02:36:30;9.45;;;6.15;;
79644;SDS011;69117;47.148;18.954;2023-09-08T02:39:32;10.07;;;5.95;;
79644;SDS011;69117;47.148;18.954;2023-09-08T02:42:33;9.15;;;5.97;;
79644;SDS011;69117;47.148;18.954;2023-09-08T02:45:35;11.13;;;7.00;;
79644;SDS011;69117;47.148;18.954;2023-09-08T02:48:37;8.18;;;5.82;;
79644;SDS011;69117;47.148;18.954;2023-09-08T02:51:39;11.60;;;6.38;;
79644;SDS011;69117;47.148;18.954;2023-09-08T02:54:41;9.63;;;6.95;;
79644;SDS011;69117;47.148;18.954;2023-09-08T02:57:43;12.38;;;6.80;;
79644;SDS011;69117;47.148;18.954;2023-09-08T03:00:44;10.88;;;7.03;;
79644;SDS011;69117;47.148;18.954;2023-09-08T03:03:46;9.98;;;6.70;;
79644;SDS011;69117;47.148;18.954;2023-09-08T03:06:49;12.52;;;7.38;;
79644;SDS011;69117;47.148;18.954;2023-09-08T03:09:51;10.60;;;7.38;;
79644;SDS011;69117;47.148;18.954;2023-09-08T03:12:53;9.60;;;6.32;;
79644;SDS011;69117;47.148;18.954;2023-09-08T03:15:54;8.07;;;6.95;;
79644;SDS011;69117;47.148;18.954;2023-09-08T03:18:57;9.73;;;7.07;;
79644;SDS011;69117;47.148;18.954;2023-09-08T03:21:59;11.57;;;7.50;;
79644;SDS011;69117;47.148;18.954;2023-09-08T03:25:01;8.45;;;6.45;;
79644;SDS011;69117;47.148;18.954;2023-09-08T03:28:03;9.73;;;6.95;;
79644;SDS011;69117;47.148;18.954;2023-09-08T03:31:05;8.25;;;7.25;;
79644;SDS011;69117;47.148;18.954;2023-09-08T03:34:07;9.13;;;6.28;;
79644;SDS011;69117;47.148;18.954;2023-09-08T03:37:08;9.05;;;5.90;;
79644;SDS011;69117;47.148;18.954;2023-09-08T03:40:10;9.43;;;6.72;;
79644;SDS011;69117;47.148;18.954;2023-09-08T03:43:12;7.80;;;6.00;;
79644;SDS011;69117;47.148;18.954;2023-09-08T03:46:14;8.90;;;5.97;;
79644;SDS011;69117;47.148;18.954;2023-09-08T03:49:16;8.07;;;5.30;;
79644;SDS011;69117;47.148;18.954;2023-09-08T03:52:18;8.02;;;6.13;;
79644;SDS011;69117;47.148;18.954;2023-09-08T03:55:19;8.52;;;5.82;;
79644;SDS011;69117;47.148;18.954;2023-09-08T03:58:21;8.05;;;5.50;;
79644;SDS011;69117;47.148;18.954;2023-09-08T04:01:23;7.88;;;5.03;;
79644;SDS011;69117;47.148;18.954;2023-09-08T04:04:24;8.63;;;5.93;;
79644;SDS011;69117;47.148;18.954;2023-09-08T04:07:26;8.00;;;4.75;;
79644;SDS011;69117;47.148;18.954;2023-09-08T04:10:28;7.57;;;5.28;;
79644;SDS011;69117;47.148;18.954;2023-09-08T04:13:29;9.88;;;6.20;;
79644;SDS011;69117;47.148;18.954;2023-09-08T04:16:31;9.02;;;5.45;;
79644;SDS011;69117;47.148;18.954;2023-09-08T04:19:33;9.13;;;5.97;;
79644;SDS011;69117;47.148;18.954;2023-09-08T04:22:34;9.13;;;6.28;;
79644;SDS011;69117;47.148;18.954;2023-09-08T04:25:36;9.63;;;5.75;;
79644;SDS011;69117;47.148;18.954;2023-09-08T04:28:38;12.15;;;5.68;;
79644;SDS011;69117;47.148;18.954;2023-09-08T04:31:39;8.27;;;5.68;;
79644;SDS011;69117;47.148;18.954;2023-09-08T04:34:41;10.65;;;6.07;;
79644;SDS011;69117;47.148;18.954;2023-09-08T04:37:43;8.00;;;5.90;;
79644;SDS011;69117;47.148;18.954;2023-09-08T04:40:45;9.65;;;6.05;;
79644;SDS011;69117;47.148;18.954;2023-09-08T04:43:47;10.38;;;5.60;;
79644;SDS011;69117;47.148;18.954;2023-09-08T04:46:49;9.35;;;6.47;;
79644;SDS011;69117;47.148;18.954;2023-09-08T04:49:51;10.90;;;7.38;;
79644;SDS011;69117;47.148;18.954;2023-09-08T04:52:52;10.60;;;6.22;;
79644;SDS011;69117;47.148;18.954;2023-09-08T04:55:54;9.23;;;6.70;;
79644;SDS011;69117;47.148;18.954;2023-09-08T04:58:56;8.57;;;6.78;;
79644;SDS011;69117;47.148;18.954;2023-09-08T05:01:59;13.98;;;7.07;;
79644;SDS011;69117;47.148;18.954;2023-09-08T05:05:00;12.80;;;8.13;;
79644;SDS011;69117;47.148;18.954;2023-09-08T05:08:02;9.63;;;7.68;;
79644;SDS011;69117;47.148;18.954;2023-09-08T05:11:05;10.95;;;7.35;;
79644;SDS011;69117;47.148;18.954;2023-09-08T05:14:06;11.52;;;7.10;;
79644;SDS011;69117;47.148;18.954;2023-09-08T05:17:08;11.07;;;7.07;;
79644;SDS011;69117;47.148;18.954;2023-09-08T05:20:10;13.75;;;6.25;;
79644;SDS011;69117;47.148;18.954;2023-09-08T05:23:12;11.20;;;6.40;;
79644;SDS011;69117;47.148;18.954;2023-09-08T05:26:13;12.73;;;7.68;;
79644;SDS011;69117;47.148;18.954;2023-09-08T05:29:15;9.90;;;6.80;;
79644;SDS011;69117;47.148;18.954;2023-09-08T05:32:17;10.57;;;7.28;;
79644;SDS011;69117;47.148;18.954;2023-09-08T05:35:18;18.38;;;7.55;;
79644;SDS011;69117;47.148;18.954;2023-09-08T05:38:20;11.07;;;7.38;;
79644;SDS011;69117;47.148;18.954;2023-09-08T05:41:22;12.63;;;7.55;;
79644;SDS011;69117;47.148;18.954;2023-09-08T05:44:23;13.48;;;7.47;;
79644;SDS011;69117;47.148;18.954;2023-09-08T05:47:26;11.98;;;6.60;;
79644;SDS011;69117;47.148;18.954;2023-09-08T05:50:28;9.65;;;6.57;;
79644;SDS011;69117;47.148;18.954;2023-09-08T05:53:29;10.95;;;6.63;;
79644;SDS011;69117;47.148;18.954;2023-09-08T05:56:31;10.45;;;7.70;;
79644;SDS011;69117;47.148;18.954;2023-09-08T05:59:34;14.48;;;6.63;;
79644;SDS011;69117;47.148;18.954;2023-09-08T06:02:36;12.23;;;7.43;;
79644;SDS011;69117;47.148;18.954;2023-09-08T06:05:38;11.93;;;7.82;;
79644;SDS011;69117;47.148;18.954;2023-09-08T06:08:39;10.00;;;7.60;;
79644;SDS011;69117;47.148;18.954;2023-09-08T06:11:41;9.63;;;6.95;;
79644;SDS011;69117;47.148;18.954;2023-09-08T06:14:43;11.70;;;7.05;;
79644;SDS011;69117;47.148;18.954;2023-09-08T06:17:45;9.38;;;6.88;;
79644;SDS011;69117;47.148;18.954;2023-09-08T06:20:48;7.18;;;5.35;;
79644;SDS011;69117;47.148;18.954;2023-09-08T06:23:50;8.95;;;5.65;;
79644;SDS011;69117;47.148;18.954;2023-09-08T06:26:51;9.20;;;5.65;;
79644;SDS011;69117;47.148;18.954;2023-09-08T06:29:53;9.93;;;5.47;;
79644;SDS011;69117;47.148;18.954;2023-09-08T06:32:58;11.13;;;4.80;;
79644;SDS011;69117;47.148;18.954;2023-09-08T06:36:00;9.63;;;6.45;;
79644;SDS011;69117;47.148;18.954;2023-09-08T06:39:01;9.32;;;6.47;;
79644;SDS011;69117;47.148;18.954;2023-09-08T06:42:03;7.30;;;5.35;;
79644;SDS011;69117;47.148;18.954;2023-09-08T06:45:05;8.85;;;4.97;;
79644;SDS011;69117;47.148;18.954;2023-09-08T06:48:08;8.07;;;5.10;;
79644;SDS011;69117;47.148;18.954;2023-09-08T06:51:10;7.25;;;4.80;;
79644;SDS011;69117;47.148;18.954;2023-09-08T06:54:11;7.47;;;4.85;;
79644;SDS011;69117;47.148;18.954;2023-09-08T06:57:13;6.28;;;4.97;;
79644;SDS011;69117;47.148;18.954;2023-09-08T07:00:15;6.47;;;5.35;;
79644;SDS011;69117;47.148;18.954;2023-09-08T07:03:18;6.70;;;4.78;;
79644;SDS011;69117;47.148;18.954;2023-09-08T07:06:20;10.05;;;5.85;;
79644;SDS011;69117;47.148;18.954;2023-09-08T07:09:23;8.77;;;5.40;;
79644;SDS011;69117;47.148;18.954;2023-09-08T07:12:25;6.30;;;4.38;;
79644;SDS011;69117;47.148;18.954;2023-09-08T07:15:27;8.85;;;5.47;;
79644;SDS011;69117;47.148;18.954;2023-09-08T07:18:29;7.20;;;4.70;;
79644;SDS011;69117;47.148;18.954;2023-09-08T07:21:34;6.57;;;5.22;;
79644;SDS011;69117;47.148;18.954;2023-09-08T07:24:35;7.75;;;5.28;;
79644;SDS011;69117;47.148;18.954;2023-09-08T07:27:37;8.95;;;6.47;;
79644;SDS011;69117;47.148;18.954;2023-09-08T07:30:39;7.95;;;5.55;;
79644;SDS011;69117;47.148;18.954;2023-09-08T07:33:41;11.60;;;5.82;;
79644;SDS011;69117;47.148;18.954;2023-09-08T07:36:43;9.68;;;5.82;;
79644;SDS011;69117;47.148;18.954;2023-09-08T07:39:45;9.98;;;5.35;;
79644;SDS011;69117;47.148;18.954;2023-09-08T07:42:47;9.50;;;5.50;;
79644;SDS011;69117;47.148;18.954;2023-09-08T07:45:49;9.57;;;5.22;;
79644;SDS011;69117;47.148;18.954;2023-09-08T07:48:50;8.82;;;5.35;;
79644;SDS011;69117;47.148;18.954;2023-09-08T07:51:52;8.27;;;5.95;;
79644;SDS011;69117;47.148;18.954;2023-09-08T07:54:54;9.80;;;6.18;;
79644;SDS011;69117;47.148;18.954;2023-09-08T07:57:56;8.45;;;4.40;;
79644;SDS011;69117;47.148;18.954;2023-09-08T08:00:59;9.73;;;4.97;;
79644;SDS011;69117;47.148;18.954;2023-09-08T08:04:00;8.48;;;5.97;;
79644;SDS011;69117;47.148;18.954;2023-09-08T08:07:05;9.10;;;5.75;;
79644;SDS011;69117;47.148;18.954;2023-09-08T08:10:06;10.82;;;4.75;;
79644;SDS011;69117;47.148;18.954;2023-09-08T08:13:09;10.80;;;4.90;;
79644;SDS011;69117;47.148;18.954;2023-09-08T08:16:11;9.48;;;5.93;;
79644;SDS011;69117;47.148;18.954;2023-09-08T08:19:13;6.30;;;5.20;;
79644;SDS011;69117;47.148;18.954;2023-09-08T08:22:15;7.25;;;5.70;;
79644;SDS011;69117;47.148;18.954;2023-09-08T08:25:16;7.30;;;4.60;;
79644;SDS011;69117;47.148;18.954;2023-09-08T08:28:18;8.40;;;4.53;;
79644;SDS011;69117;47.148;18.954;2023-09-08T08:31:20;7.30;;;5.43;;
79644;SDS011;69117;47.148;18.954;2023-09-08T08:34:22;7.80;;;5.32;;
79644;SDS011;69117;47.148;18.954;2023-09-08T08:37:24;8.15;;;4.78;;
79644;SDS011;69117;47.148;18.954;2023-09-08T08:40:26;6.78;;;4.80;;
79644;SDS011;69117;47.148;18.954;2023-09-08T08:43:28;9.15;;;5.22;;
79644;SDS011;69117;47.148;18.954;2023-09-08T08:46:31;6.35;;;4.50;;
79644;SDS011;69117;47.148;18.954;2023-09-08T08:49:34;7.78;;;4.75;;
79644;SDS011;69117;47.148;18.954;2023-09-08T08:52:38;5.88;;;4.82;;
79644;SDS011;69117;47.148;18.954;2023-09-08T08:55:41;8.93;;;5.38;;
79644;SDS011;69117;47.148;18.954;2023-09-08T08:58:43;8.70;;;4.57;;
79644;SDS011;69117;47.148;18.954;2023-09-08T09:01:46;6.95;;;5.47;;
79644;SDS011;69117;47.148;18.954;2023-09-08T09:04:49;6.60;;;4.78;;
79644;SDS011;69117;47.148;18.954;2023-09-08T09:07:52;9.43;;;5.15;;
79644;SDS011;69117;47.148;18.954;2023-09-08T09:10:56;8.57;;;4.90;;
79644;SDS011;69117;47.148;18.954;2023-09-08T09:13:58;6.45;;;4.95;;
79644;SDS011;69117;47.148;18.954;2023-09-08T09:16:59;5.75;;;5.07;;
79644;SDS011;69117;47.148;18.954;2023-09-08T09:20:15;8.70;;;5.32;;
79644;SDS011;69117;47.148;18.954;2023-09-08T09:23:32;7.82;;;4.80;;
79644;SDS011;69117;47.148;18.954;2023-09-08T09:26:35;8.52;;;4.97;;
79644;SDS011;69117;47.148;18.954;2023-09-08T09:29:44;7.78;;;4.70;;
79644;SDS011;69117;47.148;18.954;2023-09-08T09:33:02;8.45;;;5.03;;
79644;SDS011;69117;47.148;18.954;2023-09-08T09:36:05;9.30;;;5.82;;
79644;SDS011;69117;47.148;18.954;2023-09-08T09:39:08;6.35;;;4.70;;
79644;SDS011;69117;47.148;18.954;2023-09-08T09:42:10;8.93;;;4.50;;
79644;SDS011;69117;47.148;18.954;2023-09-08T09:45:11;7.60;;;4.80;;
79644;SDS011;69117;47.148;18.954;2023-09-08T09:48:14;7.57;;;4.75;;
79644;SDS011;69117;47.148;18.954;2023-09-08T09:51:17;8.63;;;4.45;;
79644;SDS011;69117;47.148;18.954;2023-09-08T09:54:20;8.60;;;5.20;;
79644;SDS011;69117;47.148;18.954;2023-09-08T09:57:22;9.40;;;5.85;;
79644;SDS011;69117;47.148;18.954;2023-09-08T10:00:25;8.60;;;4.72;;
79644;SDS011;69117;47.148;18.954;2023-09-08T10:03:28;11.25;;;5.88;;
79644;SDS011;69117;47.148;18.954;2023-09-08T10:06:32;7.85;;;5.63;;
79644;SDS011;69117;47.148;18.954;2023-09-08T10:09:36;6.28;;;4.82;;
79644;SDS011;69117;47.148;18.954;2023-09-08T10:12:38;7.55;;;5.43;;
79644;SDS011;69117;47.148;18.954;2023-09-08T10:15:43;7.35;;;5.18;;
79644;SDS011;69117;47.148;18.954;2023-09-08T10:18:46;6.35;;;5.10;;
79644;SDS011;69117;47.148;18.954;2023-09-08T10:21:50;10.90;;;4.75;;
79644;SDS011;69117;47.148;18.954;2023-09-08T10:24:55;9.35;;;6.32;;
79644;SDS011;69117;47.148;18.954;2023-09-08T10:27:59;6.40;;;5.20;;
79644;SDS011;69117;47.148;18.954;2023-09-08T10:31:01;5.68;;;4.38;;
79644;SDS011;69117;47.148;18.954;2023-09-08T10:34:04;8.35;;;5.10;;
79644;SDS011;69117;47.148;18.954;2023-09-08T10:37:22;10.68;;;5.38;;
79644;SDS011;69117;47.148;18.954;2023-09-08T10:40:30;4.82;;;4.20;;
79644;SDS011;69117;47.148;18.954;2023-09-08T10:43:34;7.20;;;4.03;;
79644;SDS011;69117;47.148;18.954;2023-09-08T10:46:36;5.35;;;4.85;;
79644;SDS011;69117;47.148;18.954;2023-09-08T10:49:38;6.72;;;4.32;;
79644;SDS011;69117;47.148;18.954;2023-09-08T10:52:41;4.72;;;3.92;;
79644;SDS011;69117;47.148;18.954;2023-09-08T10:55:47;5.78;;;5.18;;
79644;SDS011;69117;47.148;18.954;2023-09-08T10:59:12;5.05;;;3.95;;
79644;SDS011;69117;47.148;18.954;2023-09-08T11:05:37;5.65;;;4.65;;
79644;SDS011;69117;47.148;18.954;2023-09-08T11:08:41;4.80;;;4.30;;
79644;SDS011;69117;47.148;18.954;2023-09-08T11:11:43;6.22;;;3.53;;
79644;SDS011;69117;47.148;18.954;2023-09-08T11:14:46;5.10;;;4.60;;
79644;SDS011;69117;47.148;18.954;2023-09-08T11:17:50;5.50;;;4.47;;
79644;SDS011;69117;47.148;18.954;2023-09-08T11:20:52;6.13;;;4.30;;
79644;SDS011;69117;47.148;18.954;2023-09-08T11:23:54;5.55;;;4.28;;
79644;SDS011;69117;47.148;18.954;2023-09-08T11:26:57;6.65;;;4.60;;
79644;SDS011;69117;47.148;18.954;2023-09-08T11:29:58;6.18;;;5.10;;
79644;SDS011;69117;47.148;18.954;2023-09-08T11:33:00;4.90;;;4.38;;
79644;SDS011;69117;47.148;18.954;2023-09-08T11:36:02;4.70;;;4.25;;
79644;SDS011;69117;47.148;18.954;2023-09-08T11:39:11;8.00;;;4.30;;
79644;SDS011;69117;47.148;18.954;2023-09-08T11:42:13;6.70;;;4.50;;
79644;SDS011;69117;47.148;18.954;2023-09-08T11:45:16;8.20;;;4.82;;
79644;SDS011;69117;47.148;18.954;2023-09-08T11:48:23;5.75;;;4.47;;
79644;SDS011;69117;47.148;18.954;2023-09-08T11:51:26;4.97;;;3.88;;
79644;SDS011;69117;47.148;18.954;2023-09-08T11:54:28;4.93;;;4.53;;
79644;SDS011;69117;47.148;18.954;2023-09-08T11:57:31;7.22;;;4.35;;
79644;SDS011;69117;47.148;18.954;2023-09-08T12:00:33;4.82;;;4.25;;
79644;SDS011;69117;47.148;18.954;2023-09-08T12:03:50;5.55;;;5.00;;
79644;SDS011;69117;47.148;18.954;2023-09-08T12:06:54;5.05;;;4.38;;
79644;SDS011;69117;47.148;18.954;2023-09-08T12:09:59;5.63;;;5.10;;
79644;SDS011;69117;47.148;18.954;2023-09-08T12:13:08;5.03;;;4.57;;
79644;SDS011;69117;47.148;18.954;2023-09-08T12:16:20;5.13;;;4.22;;
79644;SDS011;69117;47.148;18.954;2023-09-08T12:19:29;7.60;;;4.80;;
79644;SDS011;69117;47.148;18.954;2023-09-08T12:22:32;5.35;;;4.63;;
79644;SDS011;69117;47.148;18.954;2023-09-08T12:25:43;7.93;;;5.28;;
79644;SDS011;69117;47.148;18.954;2023-09-08T12:28:46;5.82;;;4.60;;
79644;SDS011;69117;47.148;18.954;2023-09-08T12:31:48;5.78;;;5.03;;
79644;SDS011;69117;47.148;18.954;2023-09-08T12:34:54;5.50;;;4.97;;
79644;SDS011;69117;47.148;18.954;2023-09-08T12:37:59;5.72;;;5.32;;
79644;SDS011;69117;47.148;18.954;2023-09-08T12:41:02;5.57;;;5.05;;
79644;SDS011;69117;47.148;18.954;2023-09-08T12:44:04;5.05;;;4.53;;
79644;SDS011;69117;47.148;18.954;2023-09-08T12:47:06;4.90;;;4.15;;
79644;SDS011;69117;47.148;18.954;2023-09-08T12:50:08;6.25;;;4.20;;
79644;SDS011;69117;47.148;18.954;2023-09-08T12:53:11;4.78;;;4.25;;
79644;SDS011;69117;47.148;18.954;2023-09-08T12:56:12;5.13;;;4.38;;
79644;SDS011;69117;47.148;18.954;2023-09-08T12:59:19;4.88;;;4.47;;
79644;SDS011;69117;47.148;18.954;2023-09-08T13:02:21;5.40;;;4.50;;
79644;SDS011;69117;47.148;18.954;2023-09-08T13:05:23;6.97;;;4.88;;
79644;SDS011;69117;47.148;18.954;2023-09-08T13:08:25;5.22;;;4.68;;
79644;SDS011;69117;47.148;18.954;2023-09-08T13:11:26;4.82;;;4.30;;
79644;SDS011;69117;47.148;18.954;2023-09-08T13:14:29;5.90;;;4.57;;
79644;SDS011;69117;47.148;18.954;2023-09-08T13:17:30;5.45;;;4.40;;
79644;SDS011;69117;47.148;18.954;2023-09-08T13:20:32;5.10;;;4.60;;
79644;SDS011;69117;47.148;18.954;2023-09-08T13:23:34;6.28;;;5.03;;
79644;SDS011;69117;47.148;18.954;2023-09-08T13:26:35;5.18;;;4.03;;
79644;SDS011;69117;47.148;18.954;2023-09-08T13:29:40;6.53;;;4.90;;
79644;SDS011;69117;47.148;18.954;2023-09-08T13:32:41;7.57;;;5.07;;
79644;SDS011;69117;47.148;18.954;2023-09-08T13:35:44;4.90;;;4.43;;
79644;SDS011;69117;47.148;18.954;2023-09-08T13:38:46;6.05;;;4.57;;
79644;SDS011;69117;47.148;18.954;2023-09-08T13:41:51;5.03;;;4.63;;
79644;SDS011;69117;47.148;18.954;2023-09-08T13:44:53;5.72;;;5.22;;
79644;SDS011;69117;47.148;18.954;2023-09-08T13:47:56;5.25;;;4.72;;
79644;SDS011;69117;47.148;18.954;2023-09-08T13:51:02;6.97;;;5.75;;
79644;SDS011;69117;47.148;18.954;2023-09-08T13:54:07;3.65;;;3.28;;
79644;SDS011;69117;47.148;18.954;2023-09-08T13:57:12;9.35;;;5.22;;
79644;SDS011;69117;47.148;18.954;2023-09-08T14:00:15;5.18;;;4.60;;
79644;SDS011;69117;47.148;18.954;2023-09-08T14:03:21;6.05;;;4.80;;
79644;SDS011;69117;47.148;18.954;2023-09-08T14:06:24;5.05;;;4.50;;
79644;SDS011;69117;47.148;18.954;2023-09-08T14:09:31;4.70;;;4.30;;
79644;SDS011;69117;47.148;18.954;2023-09-08T14:12:48;5.30;;;4.18;;
79644;SDS011;69117;47.148;18.954;2023-09-08T14:15:50;6.30;;;4.63;;
79644;SDS011;69117;47.148;18.954;2023-09-08T14:18:52;6.60;;;4.75;;
79644;SDS011;69117;47.148;18.954;2023-09-08T14:21:54;26.15;;;15.23;;
79644;SDS011;69117;47.148;18.954;2023-09-08T14:24:55;7.38;;;5.97;;
79644;SDS011;69117;47.148;18.954;2023-09-08T14:27:57;8.38;;;4.85;;
79644;SDS011;69117;47.148;18.954;2023-09-08T14:31:01;5.68;;;4.43;;
79644;SDS011;69117;47.148;18.954;2023-09-08T14:34:03;6.13;;;4.70;;
79644;SDS011;69117;47.148;18.954;2023-09-08T14:37:05;5.32;;;4.03;;
79644;SDS011;69117;47.148;18.954;2023-09-08T14:40:11;9.20;;;4.53;;
79644;SDS011;69117;47.148;18.954;2023-09-08T14:43:13;5.65;;;4.45;;
79644;SDS011;69117;47.148;18.954;2023-09-08T14:46:15;6.40;;;4.63;;
79644;SDS011;69117;47.148;18.954;2023-09-08T14:49:17;5.65;;;4.05;;
79644;SDS011;69117;47.148;18.954;2023-09-08T14:52:18;4.20;;;3.63;;
79644;SDS011;69117;47.148;18.954;2023-09-08T14:55:22;4.22;;;3.83;;
79644;SDS011;69117;47.148;18.954;2023-09-08T14:58:23;4.45;;;4.05;;
79644;SDS011;69117;47.148;18.954;2023-09-08T15:01:26;5.43;;;3.55;;
79644;SDS011;69117;47.148;18.954;2023-09-08T15:04:28;4.05;;;3.63;;
79644;SDS011;69117;47.148;18.954;2023-09-08T15:07:29;4.50;;;3.97;;
79644;SDS011;69117;47.148;18.954;2023-09-08T15:10:31;5.63;;;3.78;;
79644;SDS011;69117;47.148;18.954;2023-09-08T15:13:33;5.95;;;3.65;;
79644;SDS011;69117;47.148;18.954;2023-09-08T15:16:35;6.57;;;4.68;;
79644;SDS011;69117;47.148;18.954;2023-09-08T15:19:37;5.15;;;4.30;;
79644;SDS011;69117;47.148;18.954;2023-09-08T15:22:38;6.40;;;4.35;;
79644;SDS011;69117;47.148;18.954;2023-09-08T15:25:40;5.32;;;4.57;;
79644;SDS011;69117;47.148;18.954;2023-09-08T15:28:42;5.70;;;4.57;;
79644;SDS011;69117;47.148;18.954;2023-09-08T15:31:43;5.10;;;4.00;;
79644;SDS011;69117;47.148;18.954;2023-09-08T15:34:45;7.43;;;4.80;;
79644;SDS011;69117;47.148;18.954;2023-09-08T15:37:51;4.82;;;3.83;;
79644;SDS011;69117;47.148;18.954;2023-09-08T15:44:09;4.18;;;2.40;;
79644;SDS011;69117;47.148;18.954;2023-09-08T15:47:11;3.58;;;3.22;;
79644;SDS011;69117;47.148;18.954;2023-09-08T15:50:13;6.72;;;3.97;;
79644;SDS011;69117;47.148;18.954;2023-09-08T15:53:14;5.88;;;3.83;;
79644;SDS011;69117;47.148;18.954;2023-09-08T15:56:16;6.03;;;3.75;;
79644;SDS011;69117;47.148;18.954;2023-09-08T15:59:18;7.65;;;3.72;;
79644;SDS011;69117;47.148;18.954;2023-09-08T16:02:19;5.18;;;4.15;;
79644;SDS011;69117;47.148;18.954;2023-09-08T16:05:21;5.65;;;3.92;;
79644;SDS011;69117;47.148;18.954;2023-09-08T16:08:23;4.43;;;3.40;;
79644;SDS011;69117;47.148;18.954;2023-09-08T16:11:25;4.03;;;3.38;;
79644;SDS011;69117;47.148;18.954;2023-09-08T16:14:27;4.88;;;4.22;;
79644;SDS011;69117;47.148;18.954;2023-09-08T16:17:29;3.95;;;3.47;;
79644;SDS011;69117;47.148;18.954;2023-09-08T16:20:30;5.88;;;3.67;;
79644;SDS011;69117;47.148;18.954;2023-09-08T16:23:33;5.50;;;3.90;;
79644;SDS011;69117;47.148;18.954;2023-09-08T16:26:35;5.40;;;3.45;;
79644;SDS011;69117;47.148;18.954;2023-09-08T16:29:36;5.70;;;3.92;;
79644;SDS011;69117;47.148;18.954;2023-09-08T16:32:40;4.78;;;3.53;;
79644;SDS011;69117;47.148;18.954;2023-09-08T16:35:42;5.38;;;3.80;;
79644;SDS011;69117;47.148;18.954;2023-09-08T16:38:43;6.13;;;4.13;;
79644;SDS011;69117;47.148;18.954;2023-09-08T16:41:45;6.70;;;3.47;;
79644;SDS011;69117;47.148;18.954;2023-09-08T16:44:47;6.03;;;3.97;;
79644;SDS011;69117;47.148;18.954;2023-09-08T16:47:48;6.60;;;3.80;;
79644;SDS011;69117;47.148;18.954;2023-09-08T16:50:50;4.72;;;3.55;;
79644;SDS011;69117;47.148;18.954;2023-09-08T16:53:52;6.32;;;2.95;;
79644;SDS011;69117;47.148;18.954;2023-09-08T16:56:54;5.68;;;3.78;;
79644;SDS011;69117;47.148;18.954;2023-09-08T16:59:55;6.88;;;3.70;;
79644;SDS011;69117;47.148;18.954;2023-09-08T17:02:57;6.13;;;3.95;;
79644;SDS011;69117;47.148;18.954;2023-09-08T17:05:59;6.70;;;3.92;;
79644;SDS011;69117;47.148;18.954;2023-09-08T17:09:01;9.20;;;4.65;;
79644;SDS011;69117;47.148;18.954;2023-09-08T17:12:02;6.22;;;4.55;;
79644;SDS011;69117;47.148;18.954;2023-09-08T17:15:08;9.57;;;5.40;;
79644;SDS011;69117;47.148;18.954;2023-09-08T17:18:10;9.95;;;4.75;;
79644;SDS011;69117;47.148;18.954;2023-09-08T17:21:12;9.10;;;5.13;;
79644;SDS011;69117;47.148;18.954;2023-09-08T17:24:13;5.85;;;4.25;;
79644;SDS011;69117;47.148;18.954;2023-09-08T17:27:16;7.80;;;3.88;;
79644;SDS011;69117;47.148;18.954;2023-09-08T17:30:18;8.45;;;4.35;;
79644;SDS011;69117;47.148;18.954;2023-09-08T17:33:20;6.90;;;4.70;;
79644;SDS011;69117;47.148;18.954;2023-09-08T17:36:21;5.93;;;3.65;;
79644;SDS011;69117;47.148;18.954;2023-09-08T17:39:23;8.45;;;4.03;;
79644;SDS011;69117;47.148;18.954;2023-09-08T17:42:25;8.05;;;4.47;;
79644;SDS011;69117;47.148;18.954;2023-09-08T17:45:27;9.07;;;5.25;;
79644;SDS011;69117;47.148;18.954;2023-09-08T17:48:28;6.50;;;4.30;;
79644;SDS011;69117;47.148;18.954;2023-09-08T17:51:30;7.70;;;4.63;;
79644;SDS011;69117;47.148;18.954;2023-09-08T17:54:32;11.60;;;6.15;;
79644;SDS011;69117;47.148;18.954;2023-09-08T17:57:34;10.18;;;5.50;;
79644;SDS011;69117;47.148;18.954;2023-09-08T18:00:36;14.10;;;5.13;;
79644;SDS011;69117;47.148;18.954;2023-09-08T18:03:38;11.48;;;5.25;;
79644;SDS011;69117;47.148;18.954;2023-09-08T18:06:40;13.05;;;7.05;;
79644;SDS011;69117;47.148;18.954;2023-09-08T18:09:42;9.23;;;5.68;;
79644;SDS011;69117;47.148;18.954;2023-09-08T18:12:44;11.63;;;5.93;;